createdAt,value
2018-08-21T00:00:13.089Z,93
2018-08-21T00:01:15.196Z,93
2018-08-21T00:02:17.288Z,93
2018-08-21T00:03:19.390Z,93
2018-08-21T00:04:21.782Z,93
2018-08-21T00:05:23.867Z,93
2018-08-21T00:06:25.976Z,93
2018-08-21T00:07:28.374Z,93
2018-08-21T00:08:30.473Z,93
2018-08-21T00:09:32.944Z,92
2018-08-21T00:10:35.053Z,93
2018-08-21T00:11:37.531Z,93
2018-08-21T00:12:40.007Z,93
2018-08-21T00:13:42.896Z,93
2018-08-21T00:14:44.977Z,92
2018-08-21T00:15:47.081Z,93
2018-08-21T00:16:49.192Z,92
2018-08-21T00:17:51.289Z,92
2018-08-21T00:18:53.377Z,92
2018-08-21T00:19:55.472Z,92
2018-08-21T00:20:57.869Z,91
2018-08-21T00:21:59.963Z,92
2018-08-21T00:23:02.443Z,91
2018-08-21T00:24:04.855Z,91
2018-08-21T00:25:06.958Z,91
2018-08-21T00:26:09.041Z,91
2018-08-21T00:27:11.141Z,91
2018-08-21T00:28:13.241Z,92
2018-08-21T00:29:15.330Z,91
2018-08-21T00:30:17.437Z,92
2018-08-21T00:31:19.819Z,92
2018-08-21T00:32:21.909Z,93
2018-08-21T00:33:24.283Z,93
2018-08-21T00:34:26.393Z,93
2018-08-21T00:35:28.554Z,93
2018-08-21T00:36:30.651Z,93
2018-08-21T00:37:32.753Z,93
2018-08-21T00:38:34.838Z,93
2018-08-21T00:39:36.945Z,93
2018-08-21T00:40:39.039Z,93
2018-08-21T00:41:41.143Z,93
2018-08-21T00:42:43.228Z,93
2018-08-21T00:43:45.334Z,94
2018-08-21T00:44:47.421Z,94
2018-08-21T00:45:49.511Z,94
2018-08-21T00:46:51.618Z,94
2018-08-21T00:47:53.701Z,94
2018-08-21T00:48:55.797Z,94
2018-08-21T00:49:57.899Z,94
2018-08-21T00:50:59.994Z,94
2018-08-21T00:52:02.076Z,94
2018-08-21T00:53:04.178Z,94
2018-08-21T00:54:06.276Z,95
2018-08-21T00:55:08.362Z,95
2018-08-21T00:56:10.470Z,95
2018-08-21T00:57:12.566Z,95
2018-08-21T00:58:14.937Z,95
2018-08-21T00:59:17.043Z,95
2018-08-21T01:00:19.421Z,95
2018-08-21T01:01:21.509Z,95
2018-08-21T01:02:23.899Z,95
2018-08-21T01:03:25.986Z,95
2018-08-21T01:04:28.479Z,95
2018-08-21T01:05:30.588Z,95
2018-08-21T01:06:32.681Z,96
2018-08-21T01:07:34.768Z,95
2018-08-21T01:08:37.169Z,95
2018-08-21T01:09:39.265Z,95
2018-08-21T01:10:41.350Z,96
2018-08-21T01:11:43.459Z,96
2018-08-21T01:12:45.544Z,96
2018-08-21T01:13:47.644Z,96
2018-08-21T01:14:49.735Z,96
2018-08-21T01:15:51.844Z,96
2018-08-21T01:16:54.625Z,96
2018-08-21T01:17:56.723Z,96
2018-08-21T01:18:58.827Z,96
2018-08-21T01:20:00.911Z,96
2018-08-21T01:21:03.015Z,97
2018-08-21T01:22:05.107Z,97
2018-08-21T01:23:07.191Z,97
2018-08-21T01:24:09.281Z,97
2018-08-21T01:25:11.390Z,97
2018-08-21T01:26:13.860Z,97
2018-08-21T01:27:15.962Z,97
2018-08-21T01:28:18.061Z,97
2018-08-21T01:29:20.528Z,97
2018-08-21T01:30:23.019Z,97
2018-08-21T01:31:25.119Z,96
2018-08-21T01:32:27.202Z,97
2018-08-21T01:33:29.597Z,97
2018-08-21T01:34:31.694Z,97
2018-08-21T01:35:34.474Z,97
2018-08-21T01:36:36.608Z,97
2018-08-21T01:37:38.705Z,97
2018-08-21T01:38:40.801Z,97
2018-08-21T01:39:42.903Z,97
2018-08-21T01:40:44.982Z,97
2018-08-21T01:41:47.088Z,98
2018-08-21T01:42:49.190Z,98
2018-08-21T01:43:51.566Z,98
2018-08-21T01:44:53.963Z,98
2018-08-21T01:45:56.049Z,98
2018-08-21T01:46:58.147Z,97
2018-08-21T01:48:00.235Z,97
2018-08-21T01:49:02.657Z,98
2018-08-21T01:50:04.743Z,97
2018-08-21T01:51:06.842Z,97
2018-08-21T01:52:08.937Z,98
2018-08-21T01:53:11.405Z,98
2018-08-21T01:54:13.508Z,98
2018-08-21T01:55:15.604Z,98
2018-08-21T01:56:17.689Z,98
2018-08-21T01:57:19.786Z,98
2018-08-21T01:58:21.895Z,98
2018-08-21T01:59:24.382Z,98
2018-08-21T02:00:26.485Z,98
2018-08-21T02:01:28.877Z,98
2018-08-21T02:02:30.969Z,98
2018-08-21T02:03:33.060Z,98
2018-08-21T02:04:35.163Z,98
2018-08-21T02:05:37.248Z,98
2018-08-21T02:06:39.341Z,99
2018-08-21T02:07:41.440Z,98
2018-08-21T02:08:43.531Z,99
2018-08-21T02:09:45.637Z,98
2018-08-21T02:10:47.727Z,98
2018-08-21T02:11:49.820Z,99
2018-08-21T02:12:51.919Z,99
2018-08-21T02:13:54.004Z,99
2018-08-21T02:14:56.504Z,99
2018-08-21T02:15:58.599Z,99
2018-08-21T02:17:00.687Z,99
2018-08-21T02:18:02.793Z,99
2018-08-21T02:19:04.881Z,99
2018-08-21T02:20:07.262Z,99
2018-08-21T02:21:09.640Z,99
2018-08-21T02:22:12.032Z,99
2018-08-21T02:23:14.501Z,99
2018-08-21T02:24:16.602Z,99
2018-08-21T02:25:18.700Z,99
2018-08-21T02:26:21.070Z,99
2018-08-21T02:27:23.173Z,99
2018-08-21T02:28:25.559Z,99
2018-08-21T02:29:27.651Z,99
2018-08-21T02:30:30.131Z,99
2018-08-21T02:31:32.242Z,99
2018-08-21T02:32:34.911Z,99
2018-08-21T02:33:37.302Z,99
2018-08-21T02:34:39.401Z,99
2018-08-21T02:35:41.773Z,99
2018-08-21T02:36:43.868Z,99
2018-08-21T02:37:45.975Z,99
2018-08-21T02:38:48.445Z,99
2018-08-21T02:39:50.828Z,100
2018-08-21T02:40:52.927Z,100
2018-08-21T02:41:55.323Z,100
2018-08-21T02:42:57.431Z,100
2018-08-21T02:43:59.527Z,100
2018-08-21T02:45:01.911Z,100
2018-08-21T02:46:04.002Z,100
2018-08-21T02:47:06.426Z,100
2018-08-21T02:48:08.512Z,100
2018-08-21T02:49:10.607Z,100
2018-08-21T02:50:12.705Z,100
2018-08-21T02:51:14.802Z,100
2018-08-21T02:52:17.273Z,100
2018-08-21T02:53:19.368Z,100
2018-08-21T02:54:21.459Z,100
2018-08-21T02:55:23.861Z,99
2018-08-21T02:56:26.331Z,100
2018-08-21T02:57:28.430Z,99
2018-08-21T02:58:30.531Z,99
2018-08-21T02:59:32.610Z,100
2018-08-21T03:00:34.717Z,100
2018-08-21T03:01:36.814Z,99
2018-08-21T03:02:39.576Z,99
2018-08-21T03:03:41.971Z,100
2018-08-21T03:04:44.470Z,99
2018-08-21T03:05:46.559Z,99
2018-08-21T03:06:49.346Z,100
2018-08-21T03:07:51.736Z,100
2018-08-21T03:08:53.821Z,100
2018-08-21T03:09:55.923Z,100
2018-08-21T03:10:58.350Z,99
2018-08-21T03:12:01.506Z,100
2018-08-21T03:13:03.602Z,100
2018-08-21T03:14:05.711Z,100
2018-08-21T03:15:07.806Z,100
2018-08-21T03:16:09.916Z,100
2018-08-21T03:17:12.397Z,100
2018-08-21T03:18:14.491Z,100
2018-08-21T03:19:16.577Z,100
2018-08-21T03:20:18.687Z,100
2018-08-21T03:21:20.768Z,100
2018-08-21T03:22:22.871Z,100
2018-08-21T03:23:24.978Z,100
2018-08-21T03:24:27.061Z,100
2018-08-21T03:25:29.164Z,100
2018-08-21T03:26:31.257Z,99
2018-08-21T03:27:33.669Z,99
2018-08-21T03:28:35.751Z,99
2018-08-21T03:29:37.857Z,99
2018-08-21T03:30:40.336Z,99
2018-08-21T03:31:42.738Z,99
2018-08-21T03:32:44.847Z,99
2018-08-21T03:33:46.931Z,99
2018-08-21T03:34:49.028Z,99
2018-08-21T03:35:51.131Z,99
2018-08-21T03:36:53.225Z,99
2018-08-21T03:37:55.700Z,99
2018-08-21T03:38:57.801Z,99
2018-08-21T03:40:00.181Z,99
2018-08-21T03:41:02.276Z,99
2018-08-21T03:42:04.954Z,99
2018-08-21T03:43:07.443Z,99
2018-08-21T03:44:09.525Z,99
2018-08-21T03:45:11.638Z,99
2018-08-21T03:46:13.729Z,99
2018-08-21T03:47:16.151Z,99
2018-08-21T03:48:18.213Z,99
2018-08-21T03:49:20.298Z,99
2018-08-21T03:50:22.408Z,99
2018-08-21T03:51:24.506Z,99
2018-08-21T03:52:26.603Z,99
2018-08-21T03:53:28.684Z,99
2018-08-21T03:54:30.791Z,99
2018-08-21T03:55:32.884Z,99
2018-08-21T03:56:34.976Z,99
2018-08-21T03:57:37.083Z,99
2018-08-21T03:58:39.464Z,98
2018-08-21T03:59:41.852Z,99
2018-08-21T04:00:44.248Z,99
2018-08-21T04:01:46.650Z,99
2018-08-21T04:02:48.734Z,99
2018-08-21T04:03:51.121Z,99
2018-08-21T04:04:53.510Z,99
2018-08-21T04:05:55.597Z,99
2018-08-21T04:06:57.693Z,99
2018-08-21T04:07:59.789Z,99
2018-08-21T04:09:01.899Z,99
2018-08-21T04:10:03.998Z,99
2018-08-21T04:11:06.078Z,99
2018-08-21T04:12:08.179Z,99
2018-08-21T04:13:10.653Z,99
2018-08-21T04:14:12.742Z,99
2018-08-21T04:15:14.845Z,99
2018-08-21T04:16:16.934Z,99
2018-08-21T04:17:19.714Z,99
2018-08-21T04:18:21.819Z,99
2018-08-21T04:19:23.906Z,100
2018-08-21T04:20:25.992Z,100
2018-08-21T04:21:28.408Z,100
2018-08-21T04:22:30.487Z,100
2018-08-21T04:23:33.272Z,100
2018-08-21T04:24:37.852Z,100
2018-08-21T04:25:39.890Z,99
2018-08-21T04:26:41.971Z,99
2018-08-21T04:27:44.075Z,99
2018-08-21T04:28:46.165Z,100
2018-08-21T04:29:48.256Z,100
2018-08-21T04:30:50.362Z,100
2018-08-21T04:31:53.026Z,100
2018-08-21T04:32:55.132Z,99
2018-08-21T04:33:57.215Z,99
2018-08-21T04:34:59.328Z,99
2018-08-21T04:36:01.415Z,99
2018-08-21T04:37:03.518Z,99
2018-08-21T04:38:05.721Z,99
2018-08-21T04:39:07.710Z,99
2018-08-21T04:40:09.820Z,99
2018-08-21T04:41:12.222Z,99
2018-08-21T04:42:14.310Z,99
2018-08-21T04:43:16.404Z,99
2018-08-21T04:44:18.519Z,99
2018-08-21T04:45:20.903Z,99
2018-08-21T04:46:23.131Z,99
2018-08-21T04:47:25.095Z,99
2018-08-21T04:48:27.178Z,99
2018-08-21T04:49:29.661Z,99
2018-08-21T04:50:31.762Z,99
2018-08-21T04:51:33.841Z,99
2018-08-21T04:52:36.335Z,99
2018-08-21T04:53:38.444Z,99
2018-08-21T04:54:41.228Z,99
2018-08-21T04:55:43.340Z,99
2018-08-21T04:56:45.440Z,98
2018-08-21T04:57:47.535Z,98
2018-08-21T04:58:49.648Z,98
2018-08-21T04:59:52.600Z,98
2018-08-21T05:00:54.684Z,98
2018-08-21T05:01:56.781Z,98
2018-08-21T05:02:58.881Z,98
2018-08-21T05:04:00.961Z,99
2018-08-21T05:05:03.456Z,98
2018-08-21T05:06:06.142Z,99
2018-08-21T05:07:08.530Z,99
2018-08-21T05:08:10.918Z,98
2018-08-21T05:09:13.307Z,99
2018-08-21T05:10:15.397Z,99
2018-08-21T05:11:17.482Z,99
2018-08-21T05:12:19.589Z,99
2018-08-21T05:13:21.959Z,99
2018-08-21T05:14:24.053Z,99
2018-08-21T05:15:26.543Z,99
2018-08-21T05:16:28.639Z,99
2018-08-21T05:17:30.727Z,99
2018-08-21T05:18:32.828Z,99
2018-08-21T05:19:34.920Z,99
2018-08-21T05:20:37.396Z,99
2018-08-21T05:21:39.505Z,99
2018-08-21T05:22:41.599Z,99
2018-08-21T05:23:44.029Z,99
2018-08-21T05:24:46.388Z,99
2018-08-21T05:25:48.881Z,99
2018-08-21T05:26:50.979Z,99
2018-08-21T05:27:53.066Z,98
2018-08-21T05:28:55.173Z,98
2018-08-21T05:29:57.961Z,98
2018-08-21T05:31:00.057Z,98
2018-08-21T05:32:02.142Z,97
2018-08-21T05:33:04.646Z,97
2018-08-21T05:34:06.732Z,97
2018-08-21T05:35:08.831Z,98
2018-08-21T05:36:10.934Z,97
2018-08-21T05:37:13.411Z,97
2018-08-21T05:38:15.518Z,97
2018-08-21T05:39:17.904Z,97
2018-08-21T05:40:20.006Z,97
2018-08-21T05:41:22.474Z,96
2018-08-21T05:42:24.972Z,96
2018-08-21T05:43:27.072Z,96
2018-08-21T05:44:29.456Z,97
2018-08-21T05:45:31.563Z,97
2018-08-21T05:46:33.685Z,96
2018-08-21T05:47:35.855Z,97
2018-08-21T05:48:37.956Z,96
2018-08-21T05:49:40.055Z,96
2018-08-21T05:50:42.150Z,96
2018-08-21T05:51:44.541Z,96
2018-08-21T05:52:46.634Z,96
2018-08-21T05:53:48.725Z,96
2018-08-21T05:54:50.827Z,96
2018-08-21T05:55:53.334Z,96
2018-08-21T05:56:55.422Z,96
2018-08-21T05:57:57.538Z,95
2018-08-21T05:58:59.625Z,95
2018-08-21T06:00:01.721Z,95
2018-08-21T06:01:04.506Z,95
2018-08-21T06:02:06.590Z,95
2018-08-21T06:03:08.980Z,95
2018-08-21T06:04:11.464Z,94
2018-08-21T06:05:13.565Z,94
2018-08-21T06:06:15.651Z,94
2018-08-21T06:07:17.750Z,94
2018-08-21T06:08:19.846Z,93
2018-08-21T06:09:21.934Z,93
2018-08-21T06:10:24.043Z,92
2018-08-21T06:11:26.810Z,92
2018-08-21T06:12:28.907Z,93
2018-08-21T06:13:31.002Z,93
2018-08-21T06:14:33.114Z,92
2018-08-21T06:15:35.199Z,91
2018-08-21T06:16:37.302Z,91
2018-08-21T06:17:39.409Z,91
2018-08-21T06:18:41.784Z,90
2018-08-21T06:19:43.884Z,91
2018-08-21T06:20:45.980Z,90
2018-08-21T06:21:48.068Z,90
2018-08-21T06:22:50.161Z,90
2018-08-21T06:23:52.269Z,90
2018-08-21T06:24:55.044Z,90
2018-08-21T06:25:57.064Z,89
2018-08-21T06:26:59.170Z,88
2018-08-21T06:28:01.253Z,88
2018-08-21T06:29:03.353Z,88
2018-08-21T06:30:05.460Z,87
2018-08-21T06:31:07.546Z,87
2018-08-21T06:32:09.946Z,88
2018-08-21T06:33:12.045Z,88
2018-08-21T06:34:14.138Z,88
2018-08-21T06:35:16.246Z,88
2018-08-21T06:36:18.411Z,87
2018-08-21T06:37:20.431Z,87
2018-08-21T06:38:22.576Z,87
2018-08-21T06:39:24.621Z,86
2018-08-21T06:40:26.726Z,85
2018-08-21T06:41:28.824Z,85
2018-08-21T06:42:30.917Z,84
2018-08-21T06:43:33.028Z,83
2018-08-21T06:44:35.119Z,83
2018-08-21T06:45:37.220Z,81
2018-08-21T06:46:39.905Z,80
2018-08-21T06:47:41.963Z,80
2018-08-21T06:48:44.050Z,80
2018-08-21T06:49:46.467Z,82
2018-08-21T06:50:48.572Z,79
2018-08-21T06:51:50.660Z,82
2018-08-21T06:52:52.782Z,81
2018-08-21T06:53:54.868Z,82
2018-08-21T06:54:56.954Z,80
2018-08-21T06:55:59.052Z,77
2018-08-21T06:57:01.166Z,77
2018-08-21T06:58:03.549Z,78
2018-08-21T06:59:05.659Z,79
2018-08-21T07:00:07.769Z,76
2018-08-21T07:01:09.857Z,77
2018-08-21T07:02:11.964Z,78
2018-08-21T07:03:14.069Z,77
2018-08-21T07:04:16.159Z,76
2018-08-21T07:05:18.261Z,74
2018-08-21T07:06:20.367Z,73
2018-08-21T07:07:22.463Z,75
2018-08-21T07:08:24.580Z,75
2018-08-21T07:09:27.353Z,73
2018-08-21T07:10:29.452Z,72
2018-08-21T07:11:31.840Z,73
2018-08-21T07:12:34.249Z,73
2018-08-21T07:13:36.632Z,70
2018-08-21T07:14:38.736Z,69
2018-08-21T07:15:41.425Z,70
2018-08-21T07:16:43.528Z,70
2018-08-21T07:17:45.623Z,70
2018-08-21T07:18:48.112Z,70
2018-08-21T07:19:50.213Z,71
2018-08-21T07:20:52.326Z,72
2018-08-21T07:21:54.713Z,72
2018-08-21T07:22:56.816Z,69
2018-08-21T07:23:58.922Z,70
2018-08-21T07:25:01.012Z,70
2018-08-21T07:26:03.139Z,69
2018-08-21T07:27:05.238Z,69
2018-08-21T07:28:07.334Z,67
2018-08-21T07:29:09.469Z,67
2018-08-21T07:30:11.926Z,69
2018-08-21T07:31:14.335Z,69
2018-08-21T07:32:16.746Z,69
2018-08-21T07:33:18.849Z,68
2018-08-21T07:34:20.942Z,68
2018-08-21T07:35:23.104Z,65
2018-08-21T07:36:25.559Z,65
2018-08-21T07:37:28.040Z,65
2018-08-21T07:38:30.154Z,63
2018-08-21T07:39:32.252Z,64
2018-08-21T07:40:34.346Z,64
2018-08-21T07:41:36.472Z,64
2018-08-21T07:42:38.573Z,63
2018-08-21T07:43:40.674Z,64
2018-08-21T07:44:42.769Z,64
2018-08-21T07:45:44.885Z,65
2018-08-21T07:46:47.390Z,66
2018-08-21T07:47:50.632Z,64
2018-08-21T07:48:54.085Z,61
2018-08-21T07:49:56.194Z,63
2018-08-21T07:50:58.644Z,62
2018-08-21T07:52:01.153Z,62
2018-08-21T07:53:03.286Z,62
2018-08-21T07:54:05.382Z,60
2018-08-21T07:55:07.861Z,61
2018-08-21T07:56:10.649Z,62
2018-08-21T07:57:12.758Z,62
2018-08-21T07:58:14.898Z,62
2018-08-21T07:59:16.963Z,63
2018-08-21T08:00:19.061Z,61
2018-08-21T08:01:21.440Z,62
2018-08-21T08:02:23.540Z,61
2018-08-21T08:03:25.660Z,60
2018-08-21T08:04:27.756Z,60
2018-08-21T08:05:29.869Z,59
2018-08-21T08:06:31.972Z,59
2018-08-21T08:07:34.071Z,59
2018-08-21T08:08:36.487Z,58
2018-08-21T08:09:38.992Z,57
2018-08-21T08:10:41.081Z,58
2018-08-21T08:11:43.196Z,57
2018-08-21T08:12:45.312Z,57
2018-08-21T08:13:47.513Z,57
2018-08-21T08:14:49.543Z,58
2018-08-21T08:15:51.950Z,58
2018-08-21T08:16:54.057Z,59
2018-08-21T08:17:56.733Z,58
2018-08-21T08:18:58.869Z,58
2018-08-21T08:20:00.962Z,58
2018-08-21T08:21:03.384Z,59
2018-08-21T08:22:05.499Z,57
2018-08-21T08:23:08.668Z,56
2018-08-21T08:24:11.393Z,57
2018-08-21T08:25:14.252Z,56
2018-08-21T08:26:16.370Z,56
2018-08-21T08:27:18.464Z,57
2018-08-21T08:28:20.584Z,55
2018-08-21T08:29:22.973Z,53
2018-08-21T08:30:25.070Z,55
2018-08-21T08:31:27.481Z,56
2018-08-21T08:32:29.580Z,54
2018-08-21T08:33:31.689Z,55
2018-08-21T08:34:33.801Z,56
2018-08-21T08:35:35.912Z,54
2018-08-21T08:36:38.396Z,55
2018-08-21T08:37:40.504Z,54
2018-08-21T08:38:42.992Z,55
2018-08-21T08:39:45.100Z,55
2018-08-21T08:40:47.619Z,55
2018-08-21T08:41:49.735Z,55
2018-08-21T08:42:52.486Z,55
2018-08-21T08:43:54.603Z,54
2018-08-21T08:44:56.713Z,55
2018-08-21T08:45:58.817Z,53
2018-08-21T08:47:03.377Z,53
2018-08-21T08:48:12.452Z,54
2018-08-21T08:49:17.936Z,53
2018-08-21T08:50:25.847Z,54
2018-08-21T08:51:37.269Z,55
2018-08-21T08:52:43.452Z,55
2018-08-21T08:53:50.724Z,54
2018-08-21T08:54:58.019Z,54
2018-08-21T08:56:11.318Z,55
2018-08-21T08:57:22.206Z,55
2018-08-21T08:58:28.936Z,56
2018-08-21T08:59:39.215Z,56
2018-08-21T09:00:46.216Z,55
2018-08-21T09:01:51.157Z,55
2018-08-21T09:02:53.484Z,54
2018-08-21T09:03:55.594Z,54
2018-08-21T09:04:57.792Z,55
2018-08-21T09:05:59.804Z,54
2018-08-21T09:07:01.925Z,55
2018-08-21T09:08:04.031Z,55
2018-08-21T09:09:06.700Z,54
2018-08-21T09:10:08.799Z,54
2018-08-21T09:11:10.919Z,54
2018-08-21T09:12:13.317Z,53
2018-08-21T09:13:15.703Z,52
2018-08-21T09:14:18.095Z,53
2018-08-21T09:15:20.218Z,54
2018-08-21T09:16:22.962Z,54
2018-08-21T09:17:25.419Z,54
2018-08-21T09:18:27.852Z,53
2018-08-21T09:19:30.258Z,52
2018-08-21T09:20:32.662Z,54
2018-08-21T09:21:35.065Z,54
2018-08-21T09:22:37.158Z,54
2018-08-21T09:23:39.272Z,53
2018-08-21T09:24:41.529Z,54
2018-08-21T09:25:43.639Z,52
2018-08-21T09:26:45.729Z,53
2018-08-21T09:27:48.234Z,53
2018-08-21T09:28:50.338Z,53
2018-08-21T09:29:52.456Z,55
2018-08-21T09:30:54.556Z,53
2018-08-21T09:31:56.647Z,51
2018-08-21T09:32:59.150Z,50
2018-08-21T09:34:01.246Z,52
2018-08-21T09:35:03.376Z,51
2018-08-21T09:36:05.476Z,50
2018-08-21T09:37:07.591Z,48
2018-08-21T09:38:09.760Z,47
2018-08-21T09:39:11.802Z,49
2018-08-21T09:40:14.311Z,49
2018-08-21T09:41:16.419Z,49
2018-08-21T09:42:18.519Z,49
2018-08-21T09:43:20.932Z,48
2018-08-21T09:44:23.657Z,50
2018-08-21T09:45:26.049Z,47
2018-08-21T09:46:28.558Z,48
2018-08-21T09:47:30.666Z,50
2018-08-21T09:48:32.766Z,49
2018-08-21T09:49:34.875Z,49
2018-08-21T09:50:36.980Z,50
2018-08-21T09:51:39.114Z,49
2018-08-21T09:52:41.202Z,49
2018-08-21T09:53:43.308Z,50
2018-08-21T09:54:45.441Z,51
2018-08-21T09:55:47.537Z,48
2018-08-21T09:56:49.657Z,48
2018-08-21T09:57:52.086Z,48
2018-08-21T09:58:54.595Z,47
2018-08-21T09:59:56.696Z,48
2018-08-21T10:00:58.824Z,46
2018-08-21T10:02:00.929Z,46
2018-08-21T10:03:03.033Z,47
2018-08-21T10:04:05.152Z,48
2018-08-21T10:05:07.952Z,48
2018-08-21T10:06:10.244Z,48
2018-08-21T10:07:12.428Z,49
2018-08-21T10:08:14.847Z,49
2018-08-21T10:09:16.946Z,50
2018-08-21T10:10:19.456Z,50
2018-08-21T10:11:21.862Z,49
2018-08-21T10:12:23.961Z,49
2018-08-21T10:13:26.133Z,48
2018-08-21T10:14:28.483Z,48
2018-08-21T10:15:30.586Z,50
2018-08-21T10:16:32.693Z,49
2018-08-21T10:17:35.102Z,49
2018-08-21T10:18:37.207Z,49
2018-08-21T10:19:39.322Z,49
2018-08-21T10:20:41.435Z,50
2018-08-21T10:21:43.531Z,50
2018-08-21T10:22:45.644Z,48
2018-08-21T10:23:47.762Z,49
2018-08-21T10:24:49.857Z,50
2018-08-21T10:25:51.987Z,50
2018-08-21T10:26:54.117Z,50
2018-08-21T10:27:56.238Z,50
2018-08-21T10:28:58.342Z,48
2018-08-21T10:30:00.859Z,48
2018-08-21T10:31:02.981Z,48
2018-08-21T10:32:05.098Z,47
2018-08-21T10:33:07.197Z,47
2018-08-21T10:34:09.323Z,46
2018-08-21T10:35:11.435Z,46
2018-08-21T10:36:13.541Z,46
2018-08-21T10:37:15.663Z,46
2018-08-21T10:38:17.763Z,46
2018-08-21T10:39:19.874Z,47
2018-08-21T10:40:21.978Z,47
2018-08-21T10:41:24.103Z,47
2018-08-21T10:42:26.594Z,47
2018-08-21T10:43:28.708Z,47
2018-08-21T10:44:30.827Z,48
2018-08-21T10:45:32.925Z,48
2018-08-21T10:46:35.047Z,48
2018-08-21T10:47:37.456Z,47
2018-08-21T10:48:39.852Z,48
2018-08-21T10:49:41.963Z,48
2018-08-21T10:50:44.085Z,49
2018-08-21T10:51:46.320Z,51
2018-08-21T10:52:48.598Z,51
2018-08-21T10:53:50.707Z,51
2018-08-21T10:54:52.808Z,48
2018-08-21T10:55:54.920Z,48
2018-08-21T10:56:57.040Z,50
2018-08-21T10:57:59.142Z,49
2018-08-21T10:59:01.648Z,49
2018-08-21T11:00:04.077Z,49
2018-08-21T11:01:06.183Z,49
2018-08-21T11:02:08.683Z,49
2018-08-21T11:03:10.723Z,49
2018-08-21T11:04:12.833Z,49
2018-08-21T11:05:15.226Z,48
2018-08-21T11:06:17.356Z,46
2018-08-21T11:07:19.455Z,44
2018-08-21T11:08:21.571Z,45
2018-08-21T11:09:23.690Z,45
2018-08-21T11:10:26.075Z,44
2018-08-21T11:11:28.196Z,45
2018-08-21T11:12:30.329Z,44
2018-08-21T11:13:32.797Z,43
2018-08-21T11:14:34.897Z,43
2018-08-21T11:15:37.024Z,44
2018-08-21T11:16:39.134Z,45
2018-08-21T11:17:41.833Z,45
2018-08-21T11:18:43.952Z,46
2018-08-21T11:19:46.443Z,46
2018-08-21T11:20:48.556Z,45
2018-08-21T11:21:50.680Z,44
2018-08-21T11:22:52.794Z,45
2018-08-21T11:23:55.899Z,46
2018-08-21T11:24:58.370Z,46
2018-08-21T11:26:00.481Z,47
2018-08-21T11:27:02.614Z,47
2018-08-21T11:28:04.734Z,47
2018-08-21T11:29:06.846Z,48
2018-08-21T11:30:08.951Z,48
2018-08-21T11:31:11.081Z,48
2018-08-21T11:32:13.186Z,48
2018-08-21T11:33:15.293Z,48
2018-08-21T11:34:17.415Z,46
2018-08-21T11:35:19.515Z,45
2018-08-21T11:36:21.633Z,45
2018-08-21T11:37:23.743Z,43
2018-08-21T11:38:25.863Z,44
2018-08-21T11:39:27.964Z,43
2018-08-21T11:40:30.090Z,43
2018-08-21T11:41:32.203Z,43
2018-08-21T11:42:34.310Z,42
2018-08-21T11:43:36.422Z,43
2018-08-21T11:44:38.576Z,42
2018-08-21T11:45:41.010Z,43
2018-08-21T11:46:43.728Z,42
2018-08-21T11:47:45.831Z,42
2018-08-21T11:48:47.954Z,43
2018-08-21T11:49:50.068Z,43
2018-08-21T11:50:52.180Z,43
2018-08-21T11:51:54.305Z,43
2018-08-21T11:52:56.696Z,43
2018-08-21T11:53:59.136Z,44
2018-08-21T11:55:01.271Z,44
2018-08-21T11:56:03.677Z,43
2018-08-21T11:57:06.704Z,44
2018-08-21T11:58:09.039Z,45
2018-08-21T11:59:11.147Z,45
2018-08-21T12:00:13.257Z,45
2018-08-21T12:01:15.381Z,45
2018-08-21T12:02:17.504Z,45
2018-08-21T12:03:19.922Z,44
2018-08-21T12:04:22.037Z,42
2018-08-21T12:05:24.733Z,43
2018-08-21T12:06:26.841Z,42
2018-08-21T12:07:28.965Z,43
2018-08-21T12:08:31.069Z,42
2018-08-21T12:09:33.471Z,43
2018-08-21T12:10:35.588Z,42
2018-08-21T12:11:37.707Z,42
2018-08-21T12:12:39.806Z,42
2018-08-21T12:13:41.944Z,41
2018-08-21T12:14:44.081Z,41
2018-08-21T12:15:46.622Z,40
2018-08-21T12:16:48.750Z,41
2018-08-21T12:17:50.859Z,40
2018-08-21T12:18:53.268Z,39
2018-08-21T12:19:55.672Z,40
2018-08-21T12:20:57.802Z,38
2018-08-21T12:21:59.916Z,38
2018-08-21T12:23:02.029Z,38
2018-08-21T12:24:04.436Z,39
2018-08-21T12:25:06.568Z,40
2018-08-21T12:26:08.678Z,40
2018-08-21T12:27:11.091Z,40
2018-08-21T12:28:13.220Z,39
2018-08-21T12:29:15.662Z,39
2018-08-21T12:30:17.771Z,39
2018-08-21T12:31:19.894Z,37
2018-08-21T12:32:22.004Z,38
2018-08-21T12:33:24.125Z,38
2018-08-21T12:34:26.553Z,39
2018-08-21T12:35:28.674Z,39
2018-08-21T12:36:31.075Z,40
2018-08-21T12:37:33.203Z,40
2018-08-21T12:38:35.325Z,39
2018-08-21T12:39:37.728Z,39
2018-08-21T12:40:39.854Z,38
2018-08-21T12:41:41.962Z,40
2018-08-21T12:42:44.084Z,40
2018-08-21T12:43:46.208Z,39
2018-08-21T12:44:48.330Z,39
2018-08-21T12:45:50.824Z,40
2018-08-21T12:46:52.955Z,40
2018-08-21T12:47:55.075Z,41
2018-08-21T12:48:57.502Z,41
2018-08-21T12:49:59.631Z,42
2018-08-21T12:51:01.739Z,41
2018-08-21T12:52:03.864Z,40
2018-08-21T12:53:05.975Z,41
2018-08-21T12:54:08.107Z,41
2018-08-21T12:55:10.512Z,40
2018-08-21T12:56:12.632Z,40
2018-08-21T12:57:14.759Z,39
2018-08-21T12:58:16.865Z,40
2018-08-21T12:59:18.985Z,39
2018-08-21T13:00:21.177Z,39
2018-08-21T13:01:23.239Z,38
2018-08-21T13:02:25.360Z,39
2018-08-21T13:03:28.064Z,39
2018-08-21T13:04:30.189Z,39
2018-08-21T13:05:32.305Z,39
2018-08-21T13:06:34.419Z,40
2018-08-21T13:07:36.542Z,40
2018-08-21T13:08:38.658Z,39
2018-08-21T13:09:40.768Z,39
2018-08-21T13:10:42.900Z,39
2018-08-21T13:11:45.015Z,39
2018-08-21T13:12:47.126Z,39
2018-08-21T13:13:49.641Z,40
2018-08-21T13:14:52.142Z,39
2018-08-21T13:15:54.295Z,40
2018-08-21T13:16:56.791Z,40
2018-08-21T13:17:59.206Z,41
2018-08-21T13:19:01.312Z,39
2018-08-21T13:20:03.753Z,39
2018-08-21T13:21:05.870Z,40
2018-08-21T13:22:07.981Z,40
2018-08-21T13:23:10.130Z,40
2018-08-21T13:24:12.528Z,39
2018-08-21T13:25:14.649Z,39
2018-08-21T13:26:16.766Z,38
2018-08-21T13:27:18.907Z,39
2018-08-21T13:28:21.014Z,39
2018-08-21T13:29:23.202Z,39
2018-08-21T13:30:25.272Z,38
2018-08-21T13:31:27.374Z,37
2018-08-21T13:32:29.511Z,39
2018-08-21T13:33:32.016Z,40
2018-08-21T13:34:34.128Z,39
2018-08-21T13:35:36.259Z,38
2018-08-21T13:36:38.491Z,39
2018-08-21T13:37:40.519Z,38
2018-08-21T13:38:43.769Z,40
2018-08-21T13:39:46.671Z,39
2018-08-21T13:40:48.783Z,39
2018-08-21T13:41:51.671Z,40
2018-08-21T13:42:53.763Z,38
2018-08-21T13:43:56.914Z,38
2018-08-21T13:44:59.042Z,38
2018-08-21T13:46:01.175Z,40
2018-08-21T13:47:03.576Z,39
2018-08-21T13:48:06.102Z,39
2018-08-21T13:49:08.827Z,38
2018-08-21T13:50:11.332Z,39
2018-08-21T13:51:13.444Z,39
2018-08-21T13:52:15.584Z,40
2018-08-21T13:53:17.699Z,38
2018-08-21T13:54:19.828Z,39
2018-08-21T13:55:21.952Z,39
2018-08-21T13:56:24.068Z,38
2018-08-21T13:57:26.202Z,35
2018-08-21T13:58:28.647Z,36
2018-08-21T13:59:30.741Z,35
2018-08-21T14:00:32.848Z,36
2018-08-21T14:01:35.275Z,37
2018-08-21T14:02:37.393Z,38
2018-08-21T14:03:39.510Z,38
2018-08-21T14:04:41.661Z,38
2018-08-21T14:05:43.815Z,38
2018-08-21T14:06:45.933Z,37
2018-08-21T14:07:48.028Z,37
2018-08-21T14:08:50.163Z,37
2018-08-21T14:09:52.263Z,38
2018-08-21T14:10:54.779Z,38
2018-08-21T14:11:56.894Z,39
2018-08-21T14:12:59.039Z,40
2018-08-21T14:14:01.146Z,39
2018-08-21T14:15:03.269Z,39
2018-08-21T14:16:05.398Z,38
2018-08-21T14:17:07.507Z,38
2018-08-21T14:18:09.634Z,39
2018-08-21T14:19:12.163Z,40
2018-08-21T14:20:14.282Z,40
2018-08-21T14:21:16.417Z,40
2018-08-21T14:22:18.536Z,40
2018-08-21T14:23:20.660Z,39
2018-08-21T14:24:23.084Z,39
2018-08-21T14:25:25.220Z,40
2018-08-21T14:26:27.332Z,39
2018-08-21T14:27:29.459Z,38
2018-08-21T14:28:31.591Z,37
2018-08-21T14:29:33.705Z,37
2018-08-21T14:30:35.838Z,37
2018-08-21T14:31:38.255Z,36
2018-08-21T14:32:40.693Z,36
2018-08-21T14:33:42.808Z,36
2018-08-21T14:34:45.919Z,35
2018-08-21T14:35:48.729Z,38
2018-08-21T14:36:50.850Z,36
2018-08-21T14:37:53.290Z,35
2018-08-21T14:38:55.917Z,36
2018-08-21T14:39:57.985Z,36
2018-08-21T14:41:00.126Z,38
2018-08-21T14:42:02.581Z,36
2018-08-21T14:43:04.681Z,35
2018-08-21T14:44:06.814Z,36
2018-08-21T14:45:08.942Z,35
2018-08-21T14:46:11.511Z,36